Time,TemperatureF,DewpointF,PressureIn,WindDirection,WindDirectionDegrees,WindSpeedMPH,WindSpeedGustMPH,Humidity,HourlyPrecipIn,Conditions,Clouds,dailyrainin,SolarRadiationWatts/m^2,SoftwareType,DateUTC
2013-07-10 00:11:00,49.0,45.0,-100.00,ENE,63,0.0,3.0,86,0.00,,,0.00,3.000000,,2013-07-10 08:11:00,
2013-07-10 00:22:00,49.0,45.0,-100.00,ENE,63,0.0,3.0,86,0.00,,,0.00,3.000000,,2013-07-10 08:22:00,
2013-07-10 00:33:00,49.0,45.0,-100.00,ENE,63,0.0,3.0,86,0.00,,,0.00,3.000000,,2013-07-10 08:33:00,
2013-07-10 00:42:00,49.0,45.0,-100.00,ENE,63,0.0,3.0,86,0.00,,,0.00,3.000000,,2013-07-10 08:42:00,
2013-07-10 00:52:00,49.0,45.0,-100.00,ENE,76,0.0,5.0,85,0.00,,,0.00,0.000000,,2013-07-10 08:52:00,
2013-07-10 01:12:00,49.0,45.0,-100.00,ENE,76,0.0,5.0,85,0.00,,,0.00,0.000000,,2013-07-10 09:12:00,
2013-07-10 01:22:00,49.0,45.0,-100.00,ENE,76,0.0,5.0,85,0.00,,,0.00,0.000000,,2013-07-10 09:22:00,
2013-07-10 01:32:00,49.0,45.0,-100.00,ENE,76,0.0,5.0,85,0.00,,,0.00,0.000000,,2013-07-10 09:32:00,
2013-07-10 01:42:00,49.0,45.0,-100.00,ENE,76,0.0,5.0,85,0.00,,,0.00,0.000000,,2013-07-10 09:42:00,
2013-07-10 01:52:00,-999.0,-99.9,-100.00,SE,127,0.0,4.0,-999,-99.99,,,-99.99,0.000000,,2013-07-10 09:52:00,
2013-07-10 02:23:00,47.0,45.0,-100.00,SE,127,0.0,4.0,91,0.00,,,0.00,0.000000,,2013-07-10 10:23:00,
2013-07-10 02:32:00,47.0,45.0,-100.00,SE,127,0.0,4.0,91,0.00,,,0.00,0.000000,,2013-07-10 10:32:00,
2013-07-10 02:50:00,-999.0,-99.9,-100.00,SE,127,0.0,4.0,-999,-99.99,,,-99.99,0.000000,,2013-07-10 10:50:00,
2013-07-10 02:52:00,46.0,44.0,-100.00,ENE,74,0.0,3.0,92,0.00,,,0.00,0.000000,,2013-07-10 10:52:00,
2013-07-10 03:11:00,46.0,44.0,-100.00,ENE,74,0.0,3.0,92,0.00,,,0.00,0.000000,,2013-07-10 11:11:00,
2013-07-10 03:22:00,46.0,44.0,-100.00,ENE,74,0.0,3.0,92,0.00,,,0.00,0.000000,,2013-07-10 11:22:00,
2013-07-10 03:33:00,46.0,44.0,-100.00,ENE,74,0.0,3.0,92,0.00,,,0.00,0.000000,,2013-07-10 11:33:00,
2013-07-10 03:43:00,46.0,44.0,-100.00,ENE,74,0.0,3.0,92,0.00,,,0.00,0.000000,,2013-07-10 11:43:00,
2013-07-10 05:52:00,45.0,43.0,-100.00,East,101,1.0,5.0,92,-99.99,,,0.00,4.000000,,2013-07-10 13:52:00,
2013-07-10 06:22:00,45.0,43.0,-100.00,East,101,1.0,5.0,92,-99.99,,,0.00,4.000000,,2013-07-10 14:22:00,
2013-07-10 06:33:00,45.0,43.0,-100.00,East,101,1.0,5.0,92,-99.99,,,0.00,4.000000,,2013-07-10 14:33:00,
2013-07-10 06:43:00,45.0,43.0,-100.00,East,101,1.0,5.0,92,-99.99,,,0.00,4.000000,,2013-07-10 14:43:00,
2013-07-10 06:52:00,45.0,43.0,-100.00,SE,129,1.0,5.0,93,0.00,,,0.00,15.000000,,2013-07-10 14:52:00,
2013-07-10 07:22:00,45.0,43.0,-100.00,SE,129,1.0,5.0,93,0.00,,,0.00,15.000000,,2013-07-10 15:22:00,
2013-07-10 07:34:00,45.0,43.0,-100.00,SE,129,1.0,5.0,93,0.00,,,0.00,15.000000,,2013-07-10 15:34:00,
2013-07-10 07:42:00,45.0,43.0,-100.00,SE,129,1.0,5.0,93,0.00,,,0.00,15.000000,,2013-07-10 15:42:00,
2013-07-10 07:52:00,50.0,47.0,-100.00,ESE,107,1.0,5.0,88,0.00,,,0.00,58.000000,,2013-07-10 15:52:00,
2013-07-10 08:22:00,50.0,47.0,-100.00,ESE,107,1.0,5.0,88,0.00,,,0.00,58.000000,,2013-07-10 16:22:00,
2013-07-10 08:33:00,50.0,47.0,-100.00,ESE,107,1.0,5.0,88,0.00,,,0.00,58.000000,,2013-07-10 16:33:00,
2013-07-10 08:44:00,50.0,47.0,-100.00,ESE,107,1.0,5.0,88,0.00,,,0.00,58.000000,,2013-07-10 16:44:00,
2013-07-10 08:52:00,57.0,50.0,-100.00,South,187,0.0,3.0,78,0.00,,,0.00,68.000000,,2013-07-10 16:52:00,
2013-07-10 09:11:00,57.0,50.0,-100.00,South,187,0.0,3.0,78,0.00,,,0.00,68.000000,,2013-07-10 17:11:00,
2013-07-10 09:23:00,57.0,50.0,-100.00,South,187,0.0,3.0,78,0.00,,,0.00,68.000000,,2013-07-10 17:23:00,
2013-07-10 09:32:00,57.0,50.0,-100.00,South,187,0.0,3.0,78,0.00,,,0.00,68.000000,,2013-07-10 17:32:00,
2013-07-10 09:42:00,57.0,50.0,-100.00,South,187,0.0,3.0,78,0.00,,,0.00,68.000000,,2013-07-10 17:42:00,
2013-07-10 10:44:00,64.0,48.0,-100.00,WSW,256,1.0,4.0,56,0.00,,,0.00,258.000000,,2013-07-10 18:44:00,
2013-07-10 20:52:00,67.0,44.0,-100.00,SW,234,1.0,5.0,43,-99.99,,,0.00,127.000000,,2013-07-11 04:52:00,
2013-07-10 21:22:00,67.0,44.0,-100.00,SW,234,1.0,5.0,43,-99.99,,,0.00,127.000000,,2013-07-11 05:22:00,
2013-07-10 21:32:00,67.0,44.0,-100.00,SW,234,1.0,5.0,43,-99.99,,,0.00,127.000000,,2013-07-11 05:32:00,
2013-07-10 21:43:00,67.0,44.0,-100.00,SW,234,1.0,5.0,43,-99.99,,,0.00,127.000000,,2013-07-11 05:43:00,
2013-07-10 21:52:00,61.0,45.0,-100.00,SE,133,0.0,5.0,55,-99.99,,,0.00,51.000000,,2013-07-11 05:52:00,
2013-07-10 22:11:00,61.0,45.0,-100.00,SE,133,0.0,5.0,55,-99.99,,,0.00,51.000000,,2013-07-11 06:11:00,
2013-07-10 22:22:00,61.0,45.0,-100.00,SE,133,0.0,5.0,55,-99.99,,,0.00,51.000000,,2013-07-11 06:22:00,
2013-07-10 22:32:00,61.0,45.0,-100.00,SE,133,0.0,5.0,55,-99.99,,,0.00,51.000000,,2013-07-11 06:32:00,
2013-07-10 22:43:00,61.0,45.0,-100.00,SE,133,0.0,5.0,55,-99.99,,,0.00,51.000000,,2013-07-11 06:43:00,
2013-07-10 22:52:00,57.0,46.0,-100.00,ENE,77,0.0,0.0,66,0.00,,,0.00,22.000000,,2013-07-11 06:52:00,
2013-07-10 23:22:00,57.0,46.0,-100.00,ENE,77,0.0,0.0,66,0.00,,,0.00,22.000000,,2013-07-11 07:22:00,
2013-07-10 23:32:00,57.0,46.0,-100.00,ENE,77,0.0,0.0,66,0.00,,,0.00,22.000000,,2013-07-11 07:32:00,
2013-07-10 23:45:00,57.0,46.0,-100.00,ENE,77,0.0,0.0,66,0.00,,,0.00,22.000000,,2013-07-11 07:45:00,
2013-07-10 23:52:00,54.0,46.0,-100.00,ENE,58,0.0,2.0,74,0.00,,,0.00,3.000000,,2013-07-11 07:52:00,